createdAt,value
2022-10-09T00:00:36.616Z,2.40
2022-10-09T00:03:04.520Z,2.53
2022-10-09T00:05:32.436Z,2.97
2022-10-09T00:08:00.347Z,2.50
2022-10-09T00:10:28.401Z,2.20
2022-10-09T00:12:57.761Z,2.40
2022-10-09T00:15:25.648Z,3.00
2022-10-09T00:17:53.692Z,2.40
2022-10-09T00:20:21.597Z,2.40
2022-10-09T00:22:49.864Z,2.50
2022-10-09T00:25:18.222Z,2.13
2022-10-09T00:27:46.117Z,2.40
2022-10-09T00:30:15.603Z,2.50
2022-10-09T00:32:43.534Z,2.40
2022-10-09T00:35:11.444Z,2.17
2022-10-09T00:37:39.354Z,2.43
2022-10-09T00:40:08.128Z,2.67
2022-10-09T00:42:36.025Z,2.30
2022-10-09T00:45:04.660Z,2.30
2022-10-09T00:47:35.723Z,2.80
2022-10-09T00:50:05.869Z,2.40
2022-10-09T00:52:33.844Z,2.17
2022-10-09T00:55:01.736Z,2.30
2022-10-09T00:57:29.713Z,1.97
2022-10-09T00:59:57.543Z,2.47
2022-10-09T01:02:25.527Z,2.40
2022-10-09T01:04:54.813Z,2.53
2022-10-09T01:07:29.273Z,2.37
2022-10-09T01:09:58.206Z,2.73
2022-10-09T01:12:37.496Z,2.33
2022-10-09T01:15:10.590Z,2.10
2022-10-09T01:17:42.010Z,2.30
2022-10-09T01:20:27.110Z,1.90
2022-10-09T01:23:08.245Z,2.07
2022-10-09T01:25:37.457Z,2.10
2022-10-09T01:28:06.727Z,2.10
2022-10-09T01:30:34.800Z,2.30
2022-10-09T01:33:02.749Z,2.80
2022-10-09T01:35:30.607Z,2.30
2022-10-09T01:37:58.491Z,2.00
2022-10-09T01:40:26.396Z,2.30
2022-10-09T01:42:54.247Z,2.00
2022-10-09T01:45:23.594Z,2.17
2022-10-09T01:47:51.440Z,2.27
2022-10-09T01:50:23.828Z,2.27
2022-10-09T01:52:53.114Z,2.70
2022-10-09T01:55:35.072Z,1.93
2022-10-09T01:58:06.130Z,2.10
2022-10-09T02:00:37.635Z,2.50
2022-10-09T02:03:07.425Z,2.13
2022-10-09T02:05:35.256Z,1.90
2022-10-09T02:08:03.131Z,2.67
2022-10-09T02:10:31.033Z,2.17
2022-10-09T02:12:59.914Z,2.33
2022-10-09T02:15:29.058Z,2.00
2022-10-09T02:18:01.909Z,2.13
2022-10-09T02:20:32.051Z,2.73
2022-10-09T02:22:59.939Z,2.60
2022-10-09T02:25:27.851Z,2.07
2022-10-09T02:27:55.855Z,2.17
2022-10-09T02:30:23.802Z,2.30
2022-10-09T02:32:53.434Z,2.20
2022-10-09T02:35:22.690Z,2.00
2022-10-09T02:37:50.588Z,2.40
2022-10-09T02:40:18.477Z,2.10
2022-10-09T02:42:46.627Z,1.63
2022-10-09T02:45:14.893Z,2.23
2022-10-09T02:47:42.802Z,2.20
2022-10-09T02:50:11.199Z,1.97
2022-10-09T02:52:40.483Z,2.47
2022-10-09T02:55:09.161Z,2.00
2022-10-09T02:57:37.021Z,2.70
2022-10-09T03:00:05.812Z,2.33
2022-10-09T03:02:33.850Z,2.00
2022-10-09T03:05:01.870Z,2.00
2022-10-09T03:07:29.772Z,1.77
2022-10-09T03:09:59.066Z,2.23
2022-10-09T03:12:26.951Z,2.00
2022-10-09T03:14:55.023Z,2.13
2022-10-09T03:17:22.876Z,2.00
2022-10-09T03:19:50.756Z,2.27
2022-10-09T03:22:18.659Z,2.10
2022-10-09T03:24:46.525Z,2.10
2022-10-09T03:27:15.789Z,1.90
2022-10-09T03:29:43.657Z,2.20
2022-10-09T03:32:11.558Z,2.20
2022-10-09T03:34:39.454Z,1.97
2022-10-09T03:37:07.348Z,1.93
2022-10-09T03:39:35.262Z,2.03
2022-10-09T03:42:03.229Z,2.50
2022-10-09T03:44:32.454Z,1.80
2022-10-09T03:47:00.454Z,2.10
2022-10-09T03:49:28.353Z,1.97
2022-10-09T03:51:56.250Z,1.70
2022-10-09T03:54:24.122Z,2.23
2022-10-09T03:56:52.056Z,1.73
2022-10-09T03:59:19.936Z,1.87
2022-10-09T04:01:49.173Z,1.70
2022-10-09T04:04:17.049Z,1.80
2022-10-09T04:06:44.921Z,1.87
2022-10-09T04:09:12.825Z,1.60
2022-10-09T04:11:40.709Z,1.93
2022-10-09T04:14:08.602Z,1.60
2022-10-09T04:16:36.658Z,1.90
2022-10-09T04:19:05.992Z,1.80
2022-10-09T04:21:34.517Z,1.80
2022-10-09T04:24:03.707Z,2.47
2022-10-09T04:26:31.579Z,1.63
2022-10-09T04:28:59.521Z,2.10
2022-10-09T04:31:27.371Z,2.47
2022-10-09T04:33:56.052Z,1.80
2022-10-09T04:36:25.433Z,1.60
2022-10-09T04:38:53.717Z,1.80
2022-10-09T04:41:21.564Z,1.57
2022-10-09T04:43:49.468Z,1.47
2022-10-09T04:46:17.412Z,1.60
2022-10-09T04:48:46.170Z,1.93
2022-10-09T04:51:14.192Z,1.83
2022-10-09T04:53:44.057Z,2.23
2022-10-09T04:56:13.386Z,1.80
2022-10-09T04:58:41.654Z,1.67
2022-10-09T05:01:09.937Z,2.00
2022-10-09T05:03:37.965Z,2.40
2022-10-09T05:06:06.844Z,1.83
2022-10-09T05:08:34.859Z,1.80
2022-10-09T05:11:04.317Z,2.10
2022-10-09T05:13:32.394Z,2.17
2022-10-09T05:16:02.573Z,1.60
2022-10-09T05:18:30.451Z,2.13
2022-10-09T05:20:58.386Z,1.90
2022-10-09T05:23:26.280Z,1.63
2022-10-09T05:25:57.396Z,1.90
2022-10-09T05:28:26.814Z,1.80
2022-10-09T05:30:54.708Z,1.70
2022-10-09T05:33:22.703Z,2.10
2022-10-09T05:35:53.516Z,1.80
2022-10-09T05:38:21.629Z,1.87
2022-10-09T05:40:53.326Z,2.20
2022-10-09T05:43:21.294Z,2.10
2022-10-09T05:45:50.621Z,1.70
2022-10-09T05:48:18.759Z,2.00
2022-10-09T05:50:46.816Z,2.33
2022-10-09T05:53:14.661Z,2.37
2022-10-09T05:55:43.056Z,2.00
2022-10-09T05:58:10.897Z,2.27
2022-10-09T06:00:38.816Z,1.93
2022-10-09T06:03:08.057Z,1.87
2022-10-09T06:05:35.956Z,2.50
2022-10-09T06:08:03.908Z,1.97
2022-10-09T06:10:32.715Z,2.40
2022-10-09T06:13:00.660Z,2.77
2022-10-09T06:15:28.749Z,2.20
2022-10-09T06:17:56.665Z,1.80
2022-10-09T06:20:26.017Z,1.90
2022-10-09T06:22:53.971Z,2.30
2022-10-09T06:25:21.984Z,1.93
2022-10-09T06:27:49.880Z,1.93
2022-10-09T06:30:17.821Z,2.20
2022-10-09T06:32:46.139Z,1.97
2022-10-09T06:35:14.577Z,2.23
2022-10-09T06:37:43.853Z,2.00
2022-10-09T06:40:11.872Z,1.90
2022-10-09T06:42:39.804Z,2.43
2022-10-09T06:45:09.848Z,2.07
2022-10-09T06:47:37.818Z,1.60
2022-10-09T06:50:06.770Z,2.00
2022-10-09T06:52:34.680Z,2.20
2022-10-09T06:55:04.034Z,2.30
2022-10-09T06:57:41.158Z,2.10
2022-10-09T07:00:27.368Z,1.80
2022-10-09T07:02:55.398Z,1.80
2022-10-09T07:05:23.399Z,1.97
2022-10-09T07:07:51.324Z,2.10
2022-10-09T07:10:25.080Z,2.07
2022-10-09T07:12:53.818Z,2.00
2022-10-09T07:15:22.538Z,2.03
2022-10-09T07:17:50.725Z,2.10
2022-10-09T07:20:19.025Z,2.23
2022-10-09T07:22:50.900Z,1.93
2022-10-09T07:25:20.872Z,1.70
2022-10-09T07:27:49.667Z,2.23
2022-10-09T07:30:17.687Z,2.03
2022-10-09T07:32:46.416Z,2.00
2022-10-09T07:35:38.000Z,2.10
2022-10-09T07:38:08.868Z,2.10
2022-10-09T07:40:57.255Z,2.17
2022-10-09T07:43:25.164Z,1.63
2022-10-09T07:45:53.679Z,2.20
2022-10-09T07:48:22.668Z,2.10
2022-10-09T07:50:51.304Z,1.97
2022-10-09T07:53:19.761Z,2.60
2022-10-09T07:55:51.024Z,2.10
2022-10-09T07:58:19.798Z,2.10
2022-10-09T08:00:48.249Z,2.00
2022-10-09T08:03:17.154Z,2.13
2022-10-09T08:05:45.009Z,2.10
2022-10-09T08:08:12.938Z,1.83
2022-10-09T08:10:40.821Z,1.97
2022-10-09T08:13:10.394Z,1.80
2022-10-09T08:15:41.516Z,2.07
2022-10-09T08:18:11.612Z,2.20
2022-10-09T08:20:39.568Z,2.47
2022-10-09T08:23:07.633Z,1.83
2022-10-09T08:25:39.012Z,2.57
2022-10-09T08:28:07.102Z,1.80
2022-10-09T08:30:36.437Z,1.70
2022-10-09T08:33:04.529Z,2.07
2022-10-09T08:35:34.689Z,1.83
2022-10-09T08:38:02.776Z,2.27
2022-10-09T08:40:33.432Z,2.17
2022-10-09T08:43:03.672Z,2.00
2022-10-09T08:45:31.705Z,2.03
2022-10-09T08:48:02.411Z,1.87
2022-10-09T08:50:31.681Z,2.10
2022-10-09T08:53:01.676Z,2.13
2022-10-09T08:55:30.236Z,2.23
2022-10-09T08:58:03.236Z,2.00
2022-10-09T09:00:44.232Z,2.20
2022-10-09T09:03:29.565Z,2.20
2022-10-09T09:05:59.862Z,2.10
2022-10-09T09:08:34.821Z,1.90
2022-10-09T09:11:10.823Z,2.33
2022-10-09T09:13:48.274Z,2.20
2022-10-09T09:16:19.378Z,1.80
2022-10-09T09:18:52.420Z,1.97
2022-10-09T09:21:28.179Z,2.17
2022-10-09T09:23:56.103Z,2.13
2022-10-09T09:26:24.010Z,2.10
2022-10-09T09:28:54.044Z,1.57
2022-10-09T09:31:23.849Z,2.00
2022-10-09T09:33:56.857Z,1.90
2022-10-09T09:36:25.634Z,1.90
2022-10-09T09:39:40.783Z,2.27
2022-10-09T09:41:41.859Z,1.80
2022-10-09T09:44:10.460Z,1.87
2022-10-09T09:46:38.519Z,1.73
2022-10-09T09:49:17.813Z,1.87
2022-10-09T09:51:45.689Z,2.00
2022-10-09T09:54:17.542Z,2.80
2022-10-09T09:59:34.758Z,2.03
2022-10-09T10:02:04.218Z,2.47
2022-10-09T10:04:33.717Z,2.27
2022-10-09T10:07:02.634Z,1.83
2022-10-09T10:09:31.823Z,2.03
2022-10-09T10:12:00.392Z,1.73
2022-10-09T10:14:28.659Z,2.50
2022-10-09T10:16:57.075Z,1.93
2022-10-09T10:19:25.978Z,2.40
2022-10-09T10:21:59.100Z,1.90
2022-10-09T10:24:29.331Z,2.07
2022-10-09T10:26:59.882Z,1.73
2022-10-09T10:29:30.724Z,1.97
2022-10-09T10:32:01.280Z,2.00
2022-10-09T10:34:30.896Z,2.40
2022-10-09T10:37:03.335Z,1.97
2022-10-09T10:39:33.332Z,2.10
2022-10-09T10:42:01.368Z,2.07
2022-10-09T10:44:35.016Z,2.20
2022-10-09T10:47:04.975Z,1.80
2022-10-09T10:49:33.954Z,1.67
2022-10-09T10:52:11.278Z,1.37
2022-10-09T10:54:40.344Z,1.70
2022-10-09T10:57:11.596Z,1.33
2022-10-09T10:59:40.979Z,1.57
2022-10-09T11:02:41.069Z,1.50
2022-10-09T11:05:17.028Z,1.63
2022-10-09T11:07:49.697Z,1.37
2022-10-09T11:10:21.269Z,1.43
2022-10-09T11:12:51.664Z,1.23
2022-10-09T11:15:23.547Z,1.70
2022-10-09T11:17:56.012Z,1.23
2022-10-09T11:20:44.875Z,1.80
2022-10-09T11:23:20.042Z,1.30
2022-10-09T11:25:51.005Z,1.53
2022-10-09T11:28:19.586Z,1.57
2022-10-09T11:30:49.665Z,1.30
2022-10-09T11:33:26.283Z,1.50
2022-10-09T11:35:57.863Z,1.23
2022-10-09T11:38:29.681Z,1.60
2022-10-09T11:41:11.875Z,1.70
2022-10-09T11:43:49.130Z,1.27
2022-10-09T11:46:21.501Z,1.27
2022-10-09T11:48:52.855Z,1.20
2022-10-09T11:51:24.068Z,1.20
2022-10-09T11:53:53.416Z,1.30
2022-10-09T11:56:23.058Z,1.30
2022-10-09T11:58:58.559Z,1.88
2022-10-09T12:01:29.707Z,1.50
2022-10-09T12:04:02.072Z,1.70
2022-10-09T12:06:29.932Z,1.50
2022-10-09T12:09:00.866Z,1.93
2022-10-09T12:11:28.926Z,1.45
2022-10-09T12:13:57.480Z,1.40
2022-10-09T12:16:33.991Z,1.80
2022-10-09T12:19:31.008Z,1.80
2022-10-09T12:22:01.864Z,1.40
2022-10-09T12:24:33.569Z,1.60
2022-10-09T12:27:03.251Z,1.50
2022-10-09T12:29:34.275Z,1.33
2022-10-09T12:32:06.589Z,1.60
2022-10-09T12:34:35.872Z,1.27
2022-10-09T12:37:17.508Z,1.50
2022-10-09T12:39:47.357Z,1.83
2022-10-09T12:42:20.626Z,1.77
2022-10-09T12:44:48.769Z,1.73
2022-10-09T12:47:23.112Z,1.30
2022-10-09T12:49:58.663Z,1.60
2022-10-09T12:52:27.296Z,1.60
2022-10-09T12:54:56.604Z,1.40
2022-10-09T12:57:27.810Z,1.47
2022-10-09T12:59:55.957Z,1.53
2022-10-09T13:02:23.914Z,1.70
2022-10-09T13:05:00.271Z,1.30
2022-10-09T13:07:29.186Z,1.50
2022-10-09T13:10:03.197Z,1.67
2022-10-09T13:12:31.109Z,1.60
2022-10-09T13:15:00.161Z,1.50
2022-10-09T13:20:05.986Z,1.63
2022-10-09T13:22:35.991Z,1.70
2022-10-09T13:25:06.489Z,1.10
2022-10-09T13:27:36.316Z,1.50
2022-10-09T13:30:04.281Z,1.30
2022-10-09T13:32:32.433Z,1.40
2022-10-09T13:35:00.603Z,1.33
2022-10-09T13:37:28.523Z,1.20
2022-10-09T13:39:57.089Z,1.20
2022-10-09T13:42:27.049Z,1.80
2022-10-09T13:44:55.144Z,1.53
2022-10-09T13:47:24.769Z,1.20
2022-10-09T13:49:53.245Z,1.40
2022-10-09T13:52:21.206Z,1.70
2022-10-09T13:54:51.326Z,1.70
2022-10-09T13:57:19.296Z,1.50
2022-10-09T13:59:48.632Z,1.63
2022-10-09T14:02:16.729Z,1.55
2022-10-09T14:04:44.775Z,1.58
2022-10-09T14:07:12.741Z,1.38
2022-10-09T14:09:40.781Z,1.15
2022-10-09T14:12:08.990Z,1.50
2022-10-09T14:14:37.052Z,1.35
2022-10-09T14:17:06.428Z,1.38
2022-10-09T14:19:34.305Z,1.10
2022-10-09T14:22:02.306Z,1.30
2022-10-09T14:24:30.510Z,1.33
2022-10-09T14:26:58.522Z,1.27
2022-10-09T14:29:26.416Z,1.58
2022-10-09T14:31:54.372Z,1.42
2022-10-09T14:34:23.740Z,1.40
2022-10-09T14:36:51.725Z,1.60
2022-10-09T14:39:19.788Z,1.60
2022-10-09T14:41:47.936Z,1.30
2022-10-09T14:44:15.855Z,1.40
2022-10-09T14:46:43.751Z,1.38
2022-10-09T14:49:11.651Z,1.60
2022-10-09T14:51:41.549Z,1.40
2022-10-09T14:54:10.151Z,1.30
2022-10-09T14:56:38.100Z,1.50
2022-10-09T14:59:06.433Z,1.50
2022-10-09T15:01:34.348Z,1.37
2022-10-09T15:04:02.407Z,1.50
2022-10-09T15:06:30.490Z,1.23
2022-10-09T15:09:04.569Z,1.80
2022-10-09T15:11:33.945Z,1.77
2022-10-09T15:14:01.903Z,1.83
2022-10-09T15:16:29.843Z,2.10
2022-10-09T15:18:57.722Z,1.77
2022-10-09T15:21:26.444Z,1.67
2022-10-09T15:23:54.848Z,1.60
2022-10-09T15:26:26.982Z,1.67
2022-10-09T15:28:54.936Z,1.67
2022-10-09T15:31:24.342Z,1.73
2022-10-09T15:33:52.358Z,1.50
2022-10-09T15:36:20.281Z,1.50
2022-10-09T15:38:48.322Z,1.50
2022-10-09T15:41:21.412Z,1.60
2022-10-09T15:43:50.870Z,1.67
2022-10-09T15:46:18.809Z,1.60
2022-10-09T15:48:47.141Z,1.40
2022-10-09T15:51:15.021Z,1.80
2022-10-09T15:53:43.286Z,1.57
2022-10-09T15:56:12.793Z,1.43
2022-10-09T15:58:40.657Z,1.60
2022-10-09T16:01:10.825Z,1.80
2022-10-09T16:03:38.863Z,1.73
2022-10-09T16:06:08.432Z,1.80
2022-10-09T16:08:36.370Z,2.00
2022-10-09T16:11:05.366Z,1.67
2022-10-09T16:13:33.272Z,1.70
2022-10-09T16:16:01.130Z,1.77
2022-10-09T16:18:30.389Z,1.60
2022-10-09T16:20:58.294Z,1.53
2022-10-09T16:23:26.156Z,1.83
2022-10-09T16:25:57.965Z,1.70
2022-10-09T16:28:26.060Z,2.10
2022-10-09T16:30:54.032Z,2.07
2022-10-09T16:33:22.064Z,1.80
2022-10-09T16:35:51.366Z,1.90
2022-10-09T16:38:19.305Z,1.70
2022-10-09T16:41:03.114Z,1.67
2022-10-09T16:43:33.987Z,1.70
2022-10-09T16:46:10.409Z,1.67
2022-10-09T16:48:38.313Z,2.00
2022-10-09T16:51:10.928Z,1.77
2022-10-09T16:53:38.814Z,2.03
2022-10-09T16:56:10.777Z,1.90
2022-10-09T16:58:39.300Z,1.90
2022-10-09T17:01:09.814Z,2.00
2022-10-09T17:03:40.433Z,2.03
2022-10-09T17:06:11.325Z,2.60
2022-10-09T17:08:39.534Z,2.50
2022-10-09T17:11:08.764Z,2.70
2022-10-09T17:13:36.878Z,2.73
2022-10-09T17:16:11.416Z,3.00
2022-10-09T17:18:42.445Z,2.53
2022-10-09T17:21:12.775Z,2.57
2022-10-09T17:23:40.662Z,2.40
2022-10-09T17:26:08.953Z,2.77
2022-10-09T17:28:36.984Z,2.57
2022-10-09T17:31:13.771Z,2.37
2022-10-09T17:33:46.201Z,2.87
2022-10-09T17:36:16.209Z,2.60
2022-10-09T17:38:44.201Z,2.00
2022-10-09T17:41:12.969Z,2.17
2022-10-09T17:43:41.005Z,2.27
2022-10-09T17:46:08.985Z,1.97
2022-10-09T17:48:43.947Z,2.00
2022-10-09T17:51:16.604Z,2.00
2022-10-09T17:53:44.673Z,2.10
2022-10-09T17:56:12.581Z,2.10
2022-10-09T17:58:40.761Z,2.20
2022-10-09T18:01:09.768Z,2.10
2022-10-09T18:03:38.258Z,2.60
2022-10-09T18:06:06.632Z,2.20
2022-10-09T18:08:36.018Z,2.00
2022-10-09T18:11:05.963Z,2.10
2022-10-09T18:13:33.869Z,1.90
2022-10-09T18:16:01.806Z,2.17
2022-10-09T18:18:29.808Z,2.03
2022-10-09T18:20:57.757Z,1.87
2022-10-09T18:23:25.731Z,2.40
2022-10-09T18:25:55.155Z,2.10
2022-10-09T18:28:23.578Z,1.80
2022-10-09T18:30:52.338Z,2.13
2022-10-09T18:33:20.300Z,2.40
2022-10-09T18:35:48.174Z,2.20
2022-10-09T18:38:16.186Z,1.87
2022-10-09T18:40:45.848Z,2.50
2022-10-09T18:43:15.356Z,2.57
2022-10-09T18:45:45.432Z,2.30
2022-10-09T18:48:13.356Z,2.23
2022-10-09T18:50:41.244Z,2.43
2022-10-09T18:53:09.144Z,2.47
2022-10-09T18:55:37.075Z,2.40
2022-10-09T18:58:04.982Z,2.30
2022-10-09T19:00:35.081Z,2.43
2022-10-09T19:03:02.996Z,1.77
2022-10-09T19:05:30.925Z,2.17
2022-10-09T19:07:58.836Z,2.00
2022-10-09T19:10:26.721Z,2.67
2022-10-09T19:12:55.173Z,2.20
2022-10-09T19:15:23.109Z,2.40
2022-10-09T19:17:52.770Z,2.47
2022-10-09T19:20:21.027Z,2.03
2022-10-09T19:22:48.951Z,2.33
2022-10-09T19:25:16.798Z,2.00
2022-10-09T19:27:44.690Z,2.33
2022-10-09T19:30:15.142Z,2.27
2022-10-09T19:32:43.046Z,2.30
2022-10-09T19:35:12.425Z,2.60
2022-10-09T19:37:40.452Z,2.00
2022-10-09T19:40:09.520Z,2.10
2022-10-09T19:42:37.447Z,1.90
2022-10-09T19:45:05.938Z,2.27
2022-10-09T19:47:33.838Z,2.60
2022-10-09T19:50:01.904Z,2.10
2022-10-09T19:52:31.136Z,2.13
2022-10-09T19:54:58.937Z,2.40
2022-10-09T19:57:28.051Z,2.43
2022-10-09T19:59:55.901Z,2.20
2022-10-09T20:02:23.793Z,2.53
2022-10-09T20:04:51.665Z,2.03
2022-10-09T20:07:19.505Z,2.30
2022-10-09T20:09:48.860Z,2.20
2022-10-09T20:12:17.793Z,2.40
2022-10-09T20:14:45.773Z,2.23
2022-10-09T20:17:13.685Z,2.43
2022-10-09T20:19:45.487Z,2.53
2022-10-09T20:22:13.670Z,2.83
2022-10-09T20:24:41.599Z,2.43
2022-10-09T20:27:10.825Z,3.20
2022-10-09T20:29:38.894Z,5.17
2022-10-09T20:32:06.833Z,8.30
2022-10-09T20:34:34.797Z,9.80
2022-10-09T20:37:02.912Z,10.60
2022-10-09T20:39:31.125Z,12.50
2022-10-09T20:41:59.006Z,14.67
2022-10-09T20:44:28.339Z,22.20
2022-10-09T20:46:56.956Z,30.23
2022-10-09T20:49:24.925Z,28.13
2022-10-09T20:51:53.309Z,38.47
2022-10-09T20:54:21.756Z,17.27
2022-10-09T20:56:49.650Z,16.43
2022-10-09T20:59:18.114Z,9.00
2022-10-09T21:01:47.689Z,3.90
2022-10-09T21:04:15.900Z,3.10
2022-10-09T21:06:43.929Z,3.53
2022-10-09T21:09:11.832Z,2.57
2022-10-09T21:11:41.432Z,2.50
2022-10-09T21:14:10.218Z,2.73
2022-10-09T21:16:38.115Z,2.53
2022-10-09T21:19:07.424Z,2.87
2022-10-09T21:21:35.456Z,2.47
2022-10-09T21:24:03.662Z,2.77
2022-10-09T21:26:35.313Z,2.93
2022-10-09T21:29:03.955Z,2.73
2022-10-09T21:31:31.999Z,2.60
2022-10-09T21:34:00.445Z,2.57
2022-10-09T21:36:34.675Z,2.77
2022-10-09T21:39:02.558Z,2.47
2022-10-09T21:41:30.421Z,3.03
2022-10-09T21:44:01.464Z,2.67
2022-10-09T21:46:29.413Z,2.70
2022-10-09T21:48:57.284Z,2.83
2022-10-09T21:51:25.164Z,2.83
2022-10-09T21:53:55.333Z,2.40
2022-10-09T21:56:23.341Z,2.93
2022-10-09T21:58:51.346Z,2.60
2022-10-09T22:01:19.248Z,2.63
2022-10-09T22:03:47.185Z,2.53
2022-10-09T22:06:18.974Z,2.83
2022-10-09T22:08:47.994Z,2.47
2022-10-09T22:11:17.331Z,2.60
2022-10-09T22:13:45.235Z,2.70
2022-10-09T22:16:14.593Z,2.77
2022-10-09T22:18:42.571Z,2.30
2022-10-09T22:21:11.800Z,2.60
2022-10-09T22:23:39.817Z,2.63
2022-10-09T22:26:08.962Z,2.23
2022-10-09T22:28:38.279Z,2.47
2022-10-09T22:31:07.214Z,2.27
2022-10-09T22:33:35.453Z,2.40
2022-10-09T22:36:07.943Z,2.30
2022-10-09T22:38:36.106Z,2.60
2022-10-09T22:41:08.531Z,2.77
2022-10-09T22:43:36.523Z,2.70
2022-10-09T22:46:09.939Z,2.40
2022-10-09T22:48:37.841Z,2.07
2022-10-09T22:51:06.914Z,2.40
2022-10-09T22:53:35.023Z,2.23
2022-10-09T22:56:04.540Z,2.47
2022-10-09T22:58:32.400Z,2.20
2022-10-09T23:01:03.737Z,2.50
2022-10-09T23:03:33.094Z,2.40
2022-10-09T23:06:09.120Z,2.30
2022-10-09T23:08:38.598Z,2.30
2022-10-09T23:11:06.622Z,2.50
2022-10-09T23:13:34.498Z,2.30
2022-10-09T23:16:02.419Z,2.37
2022-10-09T23:18:30.557Z,2.47
2022-10-09T23:20:59.829Z,2.57
2022-10-09T23:23:29.628Z,2.23
2022-10-09T23:25:57.493Z,2.57
2022-10-09T23:28:27.666Z,2.67
2022-10-09T23:31:01.763Z,2.47
2022-10-09T23:33:29.633Z,2.50
2022-10-09T23:35:58.879Z,2.50
2022-10-09T23:38:26.850Z,2.67
2022-10-09T23:40:57.976Z,2.50
2022-10-09T23:43:25.912Z,2.50
2022-10-09T23:45:55.533Z,2.40
2022-10-09T23:48:23.462Z,2.70
2022-10-09T23:50:51.358Z,2.63
2022-10-09T23:53:20.658Z,2.70
2022-10-09T23:55:48.852Z,2.60
2022-10-09T23:58:20.714Z,2.47
